Aérodrome :
LOGIN :

S'inscrire | Disclaimer

   EN    FR    IT 

 










Légende :    VFR   VFR Marginal   IFR   IFR Intensif   IFR Très Intensif
Visi : 
Plafond : 
>= 8 km
>= 3000ft
5 à 8 km
1000 à 3000 ft
1500m à 5 km
500 à 1000 ft
800 à 1500m
200 à 500 ft
< 800m
< 200 ft
Symboles :   Orages  Brouillard  Fortes neiges  Fortes précipitations  Vent > 20 kt
SIGMETs :   Divers  Orages  Givrage  Turbulence  Onde Orograph.  Cendres Volcan.






- Altitude de l'aérodrome : 685 ft
- Code IATA : VKO


UUWW - Vnukovo International

DERNIER METAR :
  • 210630Z 21002MPS CAVOK M00/M02 Q1020 R24/320155 NOSIG

METARs EXPIRÉS :
  • 210600Z 19002MPS CAVOK M01/M02 Q1020 R24/000065 NOSIG
  • 210530Z 18001MPS CAVOK M01/M03 Q1020 R24/000065 NOSIG
  • 210500Z 20002MPS CAVOK M02/M04 Q1020 R24/000065 NOSIG
  • 210430Z 19003MPS CAVOK M02/M04 Q1020 R24/000065 NOSIG
  • 210400Z 19002MPS CAVOK M02/M04 Q1020 R24/000065 NOSIG

TAF TAF UUWW
Valide du 21 à 06h jusqu'au 22 à 06h UTC


210446Z 2106/2206 21003MPS 9999 SCT015 TX05/2112Z TNM02/2204Z
PROB40
TEMPO 2123/2206 0300 FZFG SCT002



MET'MAP, la Météo Aéronautique d'un coup d'oeil ! - Copyright ORBIFLY Décembre 2007 - Disclaimer

ORBIFLY MET'MAP TEAM :

Programmation & Développement : Alexandra Zaïnal
Sur une idée originale de : Baudouin d'Aumeries
Assistance à la programmation : Marc-Olivier Méhu
Soutien technique & logistique : Manuel Goepfert

Contact : metmap@orbifly.com




SOURCES & CREDITS :

   NOAA